CheckWX is a tool to help pilots better visualize weather data.  It is not intended as a substitute for an official pre-flight weather briefing.

09:25:27 UTC

KAZO METAR
Kalamazoo / Battle Creek International Airport
Kalamazoo, Michigan, USA
Current

32 mins ago

KAZO 180853Z AUTO 33003KT 10SM CLR 02/00 A3006 RMK AO2 SLP187 I1000 I3000 T00170000 53010
Observed
Oct-18 @ 08:53 UTC
Wind
  • 330° at 3 KTS
Visibility
10 SM
Flight Rules
VFR
Cloud Levels
  • Clear skies
Temperature
C / 36°F
Dewpoint
C / 32°F
Humidity
87%
Altimeter
30.06" Hg
Pressure
1017.92 hPa
Previous

2 hours ago

KAZO 180753Z AUTO 00000KT 10SM CLR 03/01 A3005 RMK AO2 SLP182 T00330011
Observed
Oct-18 @ 07:53 UTC
Visibility
10 SM
Flight Rules
VFR
Cloud Levels
  • Clear skies
Temperature
C / 37°F
Dewpoint
C / 34°F
Humidity
87%
Altimeter
30.05" Hg
Pressure
1017.62 hPa
Previous

3 hours ago

KAZO 180653Z AUTO 00000KT 10SM CLR 04/01 A3005 RMK AO2 SLP180 T00390006
Observed
Oct-18 @ 06:53 UTC
Visibility
10 SM
Flight Rules
VFR
Cloud Levels
  • Clear skies
Temperature
C / 39°F
Dewpoint
C / 34°F
Humidity
81%
Altimeter
30.05" Hg
Pressure
1017.62 hPa